createdAt,value
2018-03-27T00:00:05.651Z,81.07
2018-03-27T00:00:59.717Z,80.51
2018-03-27T00:02:01.056Z,80.69
2018-03-27T00:03:10.691Z,80.98
2018-03-27T00:04:31.077Z,81.45
2018-03-27T00:05:23.920Z,80.98
2018-03-27T00:07:36.934Z,80.60
2018-03-27T00:08:34.071Z,81.26
2018-03-27T00:09:43.920Z,80.88
2018-03-27T00:11:01.835Z,81.17
2018-03-27T00:11:52.733Z,81.26
2018-03-27T00:13:00.624Z,81.26
2018-03-27T00:16:18.869Z,80.79
2018-03-27T00:18:08.540Z,81.26
2018-03-27T00:18:44.688Z,80.98
2018-03-27T00:21:00.066Z,81.17
2018-03-27T00:22:08.056Z,81.84
2018-03-27T00:23:07.245Z,81.36
2018-03-27T00:25:23.644Z,80.98
2018-03-27T00:26:26.416Z,81.26
2018-03-27T00:27:32.669Z,81.26
2018-03-27T00:28:35.556Z,81.65
2018-03-27T00:29:50.295Z,81.17
2018-03-27T00:32:06.898Z,81.36
2018-03-27T00:32:59.738Z,81.26
2018-03-27T00:34:11.622Z,81.36
2018-03-27T00:35:26.478Z,81.17
2018-03-27T00:36:22.491Z,81.36
2018-03-27T00:37:25.468Z,81.17
2018-03-27T00:38:45.959Z,81.36
2018-03-27T00:39:30.601Z,81.65
2018-03-27T00:40:57.848Z,81.84
2018-03-27T00:42:33.182Z,81.45
2018-03-27T00:43:40.152Z,81.45
2018-03-27T00:44:39.754Z,81.65
2018-03-27T00:45:54.714Z,82.21
2018-03-27T00:47:10.587Z,81.93
2018-03-27T00:48:24.214Z,81.93
2018-03-27T00:50:34.160Z,81.55
2018-03-27T00:52:02.839Z,81.84
2018-03-27T00:52:27.824Z,81.55
2018-03-27T00:54:02.854Z,81.84
2018-03-27T00:57:29.090Z,81.93
2018-03-27T00:58:40.874Z,82.03
2018-03-27T00:59:19.792Z,82.21
2018-03-27T01:00:33.514Z,81.36
2018-03-27T01:01:49.288Z,81.45
2018-03-27T01:03:10.288Z,81.65
2018-03-27T01:04:08.043Z,81.45
2018-03-27T01:05:14.924Z,80.98
2018-03-27T01:06:25.874Z,81.26
2018-03-27T01:07:21.481Z,80.60
2018-03-27T01:08:37.460Z,80.41
2018-03-27T01:09:39.309Z,80.84
2018-03-27T01:10:54.064Z,80.56
2018-03-27T01:11:39.017Z,80.94
2018-03-27T01:13:00.733Z,80.94
2018-03-27T01:15:03.409Z,80.75
2018-03-27T01:16:01.677Z,81.32
2018-03-27T01:17:27.078Z,81.32
2018-03-27T01:18:20.943Z,81.70
2018-03-27T01:19:28.014Z,81.13
2018-03-27T01:20:20.646Z,81.13
2018-03-27T01:21:10.413Z,81.32
2018-03-27T01:22:12.263Z,81.32
2018-03-27T01:23:27.681Z,81.41
2018-03-27T01:24:39.620Z,81.51
2018-03-27T01:25:33.074Z,81.41
2018-03-27T01:26:42.711Z,81.23
2018-03-27T01:27:51.530Z,81.23
2018-03-27T01:28:54.700Z,81.32
2018-03-27T01:30:06.381Z,81.32
2018-03-27T01:31:12.532Z,81.32
2018-03-27T01:32:18.792Z,81.32
2018-03-27T01:34:15.322Z,81.23
2018-03-27T01:35:17.373Z,81.23
2018-03-27T01:37:31.829Z,81.23
2018-03-27T01:38:42.278Z,81.41
2018-03-27T01:40:54.682Z,81.79
2018-03-27T01:42:04.621Z,81.98
2018-03-27T01:42:52.339Z,81.75
2018-03-27T01:44:10.269Z,82.17
2018-03-27T01:45:17.045Z,82.08
2018-03-27T01:46:25.743Z,82.04
2018-03-27T01:47:24.528Z,82.42
2018-03-27T01:48:27.602Z,82.51
2018-03-27T01:49:31.498Z,82.46
2018-03-27T01:50:36.830Z,82.36
2018-03-27T01:51:50.559Z,82.70
2018-03-27T01:52:50.667Z,82.17
2018-03-27T01:53:59.277Z,82.60
2018-03-27T01:55:03.483Z,82.04
2018-03-27T01:56:01.135Z,82.46
2018-03-27T01:57:09.742Z,82.23
2018-03-27T01:58:23.676Z,82.17
2018-03-27T01:59:22.967Z,82.60
2018-03-27T02:00:24.202Z,82.46
2018-03-27T02:02:37.835Z,82.60
2018-03-27T02:03:52.692Z,82.51
2018-03-27T02:04:54.541Z,82.13
2018-03-27T02:05:54.445Z,82.42
2018-03-27T02:07:00.494Z,82.42
2018-03-27T02:09:24.375Z,82.04
2018-03-27T02:10:18.752Z,82.08
2018-03-27T02:12:23.775Z,82.79
2018-03-27T02:13:35.864Z,82.55
2018-03-27T02:14:39.045Z,82.23
2018-03-27T02:15:52.900Z,82.36
2018-03-27T02:16:50.630Z,82.08
2018-03-27T02:17:52.585Z,82.65
2018-03-27T02:19:02.318Z,82.65
2018-03-27T02:20:03.250Z,82.60
2018-03-27T02:21:13.394Z,82.79
2018-03-27T02:22:30.097Z,82.55
2018-03-27T02:23:19.754Z,82.27
2018-03-27T02:25:40.658Z,82.70
2018-03-27T02:26:44.557Z,82.13
2018-03-27T02:27:49.071Z,82.89
2018-03-27T02:29:55.738Z,82.08
2018-03-27T02:32:08.553Z,82.36
2018-03-27T02:33:13.371Z,82.27
2018-03-27T02:34:21.987Z,81.85
2018-03-27T02:36:32.747Z,82.46
2018-03-27T02:37:37.055Z,82.70
2018-03-27T02:38:41.364Z,82.08
2018-03-27T02:40:58.990Z,82.36
2018-03-27T02:42:15.798Z,82.32
2018-03-27T02:43:04.022Z,82.27
2018-03-27T02:44:12.834Z,82.27
2018-03-27T02:45:12.945Z,81.88
2018-03-27T02:46:22.169Z,81.98
2018-03-27T02:47:23.096Z,82.46
2018-03-27T02:48:32.012Z,82.08
2018-03-27T02:50:41.960Z,82.74
2018-03-27T02:51:54.767Z,82.17
2018-03-27T02:52:51.188Z,82.84
2018-03-27T02:54:01.640Z,82.27
2018-03-27T02:55:07.905Z,82.55
2018-03-27T02:56:16.707Z,82.55
2018-03-27T02:57:15.795Z,82.84
2018-03-27T02:58:18.565Z,82.74
2018-03-27T02:59:31.680Z,82.74
2018-03-27T03:00:34.050Z,82.74
2018-03-27T03:01:37.941Z,82.74
2018-03-27T03:02:37.843Z,82.74
2018-03-27T03:03:49.731Z,82.36
2018-03-27T03:05:54.664Z,82.46
2018-03-27T03:07:05.214Z,82.65
2018-03-27T03:08:24.779Z,82.65
2018-03-27T03:09:18.640Z,82.84
2018-03-27T03:10:32.473Z,82.65
2018-03-27T03:11:45.178Z,82.84
2018-03-27T03:12:45.082Z,82.65
2018-03-27T03:13:40.890Z,82.74
2018-03-27T03:15:51.660Z,82.55
2018-03-27T03:16:56.998Z,82.55
2018-03-27T03:18:00.274Z,82.17
2018-03-27T03:19:10.137Z,81.98
2018-03-27T03:20:07.864Z,82.17
2018-03-27T03:21:28.867Z,82.36
2018-03-27T03:22:29.691Z,82.08
2018-03-27T03:23:39.740Z,82.08
2018-03-27T03:25:42.410Z,82.08
2018-03-27T03:26:56.852Z,82.08
2018-03-27T03:27:49.692Z,82.13
2018-03-27T03:28:58.814Z,82.08
2018-03-27T03:30:05.374Z,82.13
2018-03-27T03:31:09.580Z,82.17
2018-03-27T03:32:16.037Z,82.08
2018-03-27T03:33:16.764Z,82.46
2018-03-27T03:34:34.280Z,82.42
2018-03-27T03:35:24.455Z,82.60
2018-03-27T03:37:35.118Z,83.22
2018-03-27T03:38:41.987Z,82.89
2018-03-27T03:39:50.805Z,83.31
2018-03-27T03:41:03.606Z,83.08
2018-03-27T03:42:02.496Z,83.31
2018-03-27T03:43:03.210Z,83.36
2018-03-27T03:44:13.358Z,83.27
2018-03-27T03:45:15.922Z,82.79
2018-03-27T03:46:22.282Z,83.17
2018-03-27T03:47:35.598Z,82.51
2018-03-27T03:48:37.142Z,82.51
2018-03-27T03:50:51.080Z,82.79
2018-03-27T03:51:58.973Z,81.94
2018-03-27T03:53:58.891Z,82.42
2018-03-27T03:55:05.855Z,82.23
2018-03-27T03:56:14.163Z,82.23
2018-03-27T03:57:16.213Z,82.13
2018-03-27T03:58:21.337Z,82.13
2018-03-27T03:59:30.151Z,82.42
2018-03-27T04:00:30.773Z,82.89
2018-03-27T04:01:43.683Z,82.60
2018-03-27T04:02:41.234Z,82.23
2018-03-27T04:04:58.858Z,81.85
2018-03-27T04:07:17.817Z,81.94
2018-03-27T04:08:18.540Z,82.23
2018-03-27T04:09:23.669Z,82.79
2018-03-27T04:10:29.409Z,82.79
2018-03-27T04:11:28.903Z,82.13
2018-03-27T04:13:33.526Z,82.70
2018-03-27T04:14:45.207Z,82.32
2018-03-27T04:15:50.335Z,82.23
2018-03-27T04:16:59.150Z,82.23
2018-03-27T04:18:03.865Z,82.23
2018-03-27T04:19:06.126Z,82.04
2018-03-27T04:20:13.917Z,81.85
2018-03-27T04:21:14.432Z,81.85
2018-03-27T04:22:26.421Z,82.13
2018-03-27T04:25:48.459Z,82.70
2018-03-27T04:28:49.505Z,82.60
2018-03-27T04:30:05.380Z,83.27
2018-03-27T04:31:09.897Z,82.98
2018-03-27T04:32:12.155Z,83.17
2018-03-27T04:33:21.274Z,82.70
2018-03-27T04:34:26.099Z,83.08
2018-03-27T04:35:29.275Z,82.98
2018-03-27T04:36:33.993Z,83.65
2018-03-27T04:37:33.489Z,83.65
2018-03-27T04:38:47.627Z,83.46
2018-03-27T04:39:49.580Z,82.89
2018-03-27T04:40:53.991Z,83.08
2018-03-27T04:42:07.004Z,83.17
2018-03-27T04:43:06.400Z,83.17
2018-03-27T04:44:12.853Z,83.46
2018-03-27T04:45:16.652Z,83.17
2018-03-27T04:46:22.288Z,83.46
2018-03-27T04:47:29.157Z,83.08
2018-03-27T04:48:35.205Z,83.27
2018-03-27T04:50:51.706Z,83.46
2018-03-27T04:52:53.461Z,82.70
2018-03-27T04:53:58.279Z,82.60
2018-03-27T04:56:12.528Z,82.70
2018-03-27T04:57:12.738Z,82.51
2018-03-27T05:00:31.498Z,82.98
2018-03-27T05:01:38.777Z,83.27
2018-03-27T05:04:54.468Z,84.03
2018-03-27T05:07:14.138Z,84.26
2018-03-27T05:09:14.565Z,83.50
2018-03-27T05:10:26.450Z,82.84
2018-03-27T05:11:34.584Z,83.40
2018-03-27T05:12:37.521Z,82.55
2018-03-27T05:13:42.036Z,82.27
2018-03-27T05:14:44.703Z,82.46
2018-03-27T05:15:46.657Z,81.79
2018-03-27T05:16:55.776Z,81.26
2018-03-27T05:18:03.160Z,81.23
2018-03-27T05:19:11.871Z,81.23
2018-03-27T05:20:23.139Z,81.26
2018-03-27T05:21:25.705Z,80.98
2018-03-27T05:22:27.863Z,80.46
2018-03-27T05:23:34.525Z,79.80
2018-03-27T05:24:40.071Z,78.95
2018-03-27T05:25:46.111Z,78.66
2018-03-27T05:26:39.769Z,79.04
2018-03-27T05:27:59.949Z,79.23
2018-03-27T05:28:56.783Z,79.33
2018-03-27T05:31:07.652Z,79.42
2018-03-27T05:32:11.253Z,79.23
2018-03-27T05:33:18.213Z,79.33
2018-03-27T05:34:25.504Z,78.85
2018-03-27T05:36:40.561Z,78.38
2018-03-27T05:37:36.061Z,78.56
2018-03-27T05:38:54.398Z,79.04
2018-03-27T05:39:58.396Z,78.85
2018-03-27T05:42:10.082Z,79.52
2018-03-27T05:43:13.469Z,79.38
2018-03-27T05:44:14.808Z,79.52
2018-03-27T05:45:19.626Z,78.91
2018-03-27T05:46:34.791Z,79.76
2018-03-27T05:48:46.888Z,80.24
2018-03-27T05:49:42.491Z,80.14
2018-03-27T05:50:45.056Z,80.14
2018-03-27T05:51:55.303Z,79.66
2018-03-27T05:52:55.618Z,79.66
2018-03-27T05:53:59.823Z,79.85
2018-03-27T05:55:11.298Z,79.57
2018-03-27T05:56:10.385Z,79.76
2018-03-27T05:57:21.043Z,79.95
2018-03-27T05:58:27.705Z,79.85
2018-03-27T05:59:34.062Z,79.66
2018-03-27T06:00:36.423Z,80.43
2018-03-27T06:02:11.251Z,80.24
2018-03-27T06:02:53.640Z,80.24
2018-03-27T06:04:03.989Z,80.24
2018-03-27T06:06:02.991Z,80.71
2018-03-27T06:07:09.539Z,81.18
2018-03-27T06:08:20.708Z,81.18
2018-03-27T06:09:22.157Z,81.09
2018-03-27T06:12:31.079Z,81.37
2018-03-27T06:13:42.758Z,81.66
2018-03-27T06:14:48.193Z,81.66
2018-03-27T06:15:57.622Z,82.04
2018-03-27T06:16:55.170Z,81.56
2018-03-27T06:18:07.978Z,82.04
2018-03-27T06:19:11.580Z,81.94
2018-03-27T06:20:12.496Z,82.60
2018-03-27T06:23:37.199Z,82.60
2018-03-27T06:24:35.256Z,83.17
2018-03-27T06:25:53.800Z,83.27
2018-03-27T06:26:47.151Z,83.36
2018-03-27T06:27:50.235Z,83.36
2018-03-27T06:28:59.146Z,84.07
2018-03-27T06:31:22.302Z,83.69
2018-03-27T06:32:17.496Z,84.26
2018-03-27T06:33:26.106Z,84.36
2018-03-27T06:34:28.467Z,84.45
2018-03-27T06:36:38.316Z,84.26
2018-03-27T06:37:46.511Z,84.36
2018-03-27T06:38:59.318Z,84.64
2018-03-27T06:39:52.064Z,84.74
2018-03-27T06:41:06.807Z,84.36
2018-03-27T06:42:09.096Z,84.92
2018-03-27T06:43:17.064Z,84.55
2018-03-27T06:44:16.658Z,84.83
2018-03-27T06:45:27.213Z,84.74
2018-03-27T06:46:31.111Z,85.02
2018-03-27T06:48:52.117Z,85.59
2018-03-27T06:49:47.924Z,84.74
2018-03-27T06:50:58.992Z,85.11
2018-03-27T06:52:01.149Z,84.64
2018-03-27T06:53:06.992Z,84.74
2018-03-27T06:54:10.790Z,84.64
2018-03-27T06:55:11.307Z,84.92
2018-03-27T06:56:27.391Z,85.68
2018-03-27T06:57:25.248Z,85.40
2018-03-27T07:00:46.158Z,84.83
2018-03-27T07:01:50.376Z,84.30
2018-03-27T07:04:17.926Z,84.68
2018-03-27T07:06:11.690Z,84.97
2018-03-27T07:07:28.403Z,84.49
2018-03-27T07:08:21.669Z,84.21
2018-03-27T07:09:40.385Z,84.49
2018-03-27T07:10:44.374Z,84.78
2018-03-27T07:11:57.407Z,84.59
2018-03-27T07:13:01.914Z,84.78
2018-03-27T07:15:20.492Z,84.30
2018-03-27T07:16:15.558Z,84.40
2018-03-27T07:17:21.544Z,84.30
2018-03-27T07:18:38.915Z,84.11
2018-03-27T07:19:23.893Z,84.30
2018-03-27T07:20:28.380Z,84.34
2018-03-27T07:21:51.733Z,84.34
2018-03-27T07:22:50.514Z,84.16
2018-03-27T07:24:50.422Z,84.16
2018-03-27T07:26:17.873Z,83.97
2018-03-27T07:27:24.126Z,83.49
2018-03-27T07:28:38.674Z,83.59
2018-03-27T07:29:10.420Z,83.68
2018-03-27T07:30:11.858Z,83.78
2018-03-27T07:32:27.347Z,83.30
2018-03-27T07:35:19.269Z,82.35
2018-03-27T07:36:17.432Z,82.54
2018-03-27T07:38:16.021Z,82.10
2018-03-27T07:39:12.536Z,82.29
2018-03-27T07:40:30.823Z,80.96
2018-03-27T07:41:13.780Z,81.06
2018-03-27T07:43:20.552Z,80.40
2018-03-27T07:45:15.240Z,80.77
2018-03-27T07:45:59.785Z,80.05
2018-03-27T07:47:06.448Z,79.86
2018-03-27T07:47:58.878Z,79.86
2018-03-27T07:49:04.516Z,79.77
2018-03-27T07:50:34.015Z,79.86
2018-03-27T07:52:17.236Z,79.30
2018-03-27T07:55:51.463Z,78.25
2018-03-27T07:56:51.362Z,77.87
2018-03-27T07:57:51.167Z,77.97
2018-03-27T07:59:03.767Z,78.06
2018-03-27T08:00:09.407Z,78.34
2018-03-27T08:01:10.130Z,78.25
2018-03-27T08:02:19.866Z,78.34
2018-03-27T08:04:16.294Z,78.16
2018-03-27T08:05:34.939Z,78.25
2018-03-27T08:06:43.403Z,77.49
2018-03-27T08:07:42.636Z,77.77
2018-03-27T08:08:43.877Z,77.49
2018-03-27T08:09:50.636Z,77.49
2018-03-27T08:11:52.388Z,77.58
2018-03-27T08:13:05.094Z,77.39
2018-03-27T08:14:20.056Z,77.43
2018-03-27T08:15:24.461Z,77.72
2018-03-27T08:16:27.130Z,77.34
2018-03-27T08:17:23.554Z,76.39
2018-03-27T08:19:40.366Z,76.10
2018-03-27T08:20:47.744Z,75.53
2018-03-27T08:21:51.946Z,75.53
2018-03-27T08:22:45.809Z,74.67
2018-03-27T08:23:54.623Z,73.91
2018-03-27T08:25:08.560Z,73.44
2018-03-27T08:26:03.340Z,73.44
2018-03-27T08:27:07.962Z,73.82
2018-03-27T08:28:12.575Z,73.63
2018-03-27T08:29:19.385Z,72.39
2018-03-27T08:30:34.702Z,72.20
2018-03-27T08:32:39.940Z,72.81
2018-03-27T08:33:50.288Z,71.28
2018-03-27T08:34:48.863Z,71.76
2018-03-27T08:35:48.774Z,71.28
2018-03-27T08:38:10.183Z,70.72
2018-03-27T08:40:28.630Z,71.47
2018-03-27T08:41:18.197Z,70.14
2018-03-27T08:42:41.854Z,70.33
2018-03-27T08:43:40.735Z,70.05
2018-03-27T08:44:44.325Z,70.14
2018-03-27T08:45:52.931Z,69.57
2018-03-27T08:48:00.524Z,68.94
2018-03-27T08:49:10.773Z,67.89
2018-03-27T08:50:04.020Z,66.66
2018-03-27T08:51:06.179Z,66.75
2018-03-27T08:53:24.522Z,67.22
2018-03-27T08:54:32.515Z,68.18
2018-03-27T08:55:30.985Z,67.61
2018-03-27T08:56:35.090Z,67.22
2018-03-27T08:57:53.631Z,66.88
2018-03-27T08:58:47.603Z,66.50
2018-03-27T08:59:59.173Z,66.11
2018-03-27T09:01:00.722Z,62.49
2018-03-27T09:02:30.012Z,62.59
2018-03-27T09:03:22.961Z,60.02
2018-03-27T09:04:38.018Z,59.35
2018-03-27T09:07:34.654Z,61.93
2018-03-27T09:08:58.213Z,62.02
2018-03-27T09:10:31.295Z,62.02
2018-03-27T09:12:16.256Z,60.69
2018-03-27T09:13:14.112Z,60.21
2018-03-27T09:15:24.367Z,59.19
2018-03-27T09:16:53.356Z,59.28
2018-03-27T09:17:47.635Z,58.33
2018-03-27T09:18:40.262Z,58.33
2018-03-27T09:19:56.344Z,58.33
2018-03-27T09:21:05.772Z,56.14
2018-03-27T09:21:56.570Z,57.09
2018-03-27T09:23:07.425Z,57.28
2018-03-27T09:24:16.646Z,57.00
2018-03-27T09:25:11.948Z,57.19
2018-03-27T09:26:21.166Z,57.38
2018-03-27T09:27:24.144Z,55.60
2018-03-27T09:29:35.323Z,53.41
2018-03-27T09:30:38.711Z,53.31
2018-03-27T09:31:40.454Z,51.78
2018-03-27T09:32:44.660Z,49.30
2018-03-27T09:33:59.310Z,47.58
2018-03-27T09:35:08.635Z,45.78
2018-03-27T09:36:09.459Z,46.82
2018-03-27T09:37:15.306Z,45.58
2018-03-27T09:38:17.872Z,46.44
2018-03-27T09:40:40.005Z,47.20
2018-03-27T09:41:39.193Z,45.58
2018-03-27T09:42:52.715Z,44.25
2018-03-27T09:44:01.428Z,43.39
2018-03-27T09:46:02.261Z,45.29
2018-03-27T09:47:00.733Z,47.20
2018-03-27T09:48:06.778Z,46.82
2018-03-27T09:49:18.869Z,47.30
2018-03-27T09:50:22.359Z,47.99
2018-03-27T09:51:30.668Z,49.62
2018-03-27T09:53:45.832Z,48.28
2018-03-27T09:54:38.484Z,47.42
2018-03-27T09:57:16.981Z,46.94
2018-03-27T09:57:59.579Z,45.89
2018-03-27T09:59:11.873Z,46.47
2018-03-27T10:00:05.022Z,47.32
2018-03-27T10:01:11.581Z,47.80
2018-03-27T10:02:36.070Z,47.32
2018-03-27T10:03:19.993Z,48.66
2018-03-27T10:04:27.788Z,48.11
2018-03-27T10:06:34.964Z,43.53
2018-03-27T10:07:52.380Z,44.38
2018-03-27T10:09:53.630Z,43.72
2018-03-27T10:10:59.058Z,43.53
2018-03-27T10:12:12.178Z,44.29
2018-03-27T10:13:17.911Z,43.46
2018-03-27T10:14:20.999Z,43.65
2018-03-27T10:15:40.664Z,42.69
2018-03-27T10:17:28.906Z,42.40
2018-03-27T10:18:45.390Z,42.97
2018-03-27T10:19:49.210Z,42.50
2018-03-27T10:21:18.480Z,42.60
2018-03-27T10:22:02.463Z,42.40
2018-03-27T10:22:59.242Z,42.50
2018-03-27T10:24:28.948Z,42.60
2018-03-27T10:25:14.718Z,42.40
2018-03-27T10:26:22.612Z,42.21
2018-03-27T10:27:40.541Z,42.69
2018-03-27T10:28:52.628Z,42.40
2018-03-27T10:29:46.592Z,42.97
2018-03-27T10:30:54.178Z,41.83
2018-03-27T10:32:06.577Z,42.02
2018-03-27T10:34:00.855Z,42.21
2018-03-27T10:35:32.606Z,42.21
2018-03-27T10:36:05.168Z,42.40
2018-03-27T10:38:23.717Z,42.61
2018-03-27T10:39:09.593Z,42.61
2018-03-27T10:42:50.679Z,42.04
2018-03-27T10:43:15.048Z,41.85
2018-03-27T10:44:31.439Z,40.89
2018-03-27T10:45:51.727Z,42.04
2018-03-27T10:47:01.772Z,41.56
2018-03-27T10:47:45.491Z,41.09
2018-03-27T10:52:00.270Z,37.26
2018-03-27T10:53:32.117Z,37.07
2018-03-27T10:54:09.188Z,37.36
2018-03-27T10:55:24.865Z,37.26
2018-03-27T10:56:29.181Z,37.93
2018-03-27T10:57:26.615Z,37.93
2018-03-27T10:58:34.509Z,37.26
2018-03-27T10:59:44.044Z,37.26
2018-03-27T11:00:47.629Z,38.58
2018-03-27T11:03:25.327Z,39.94
2018-03-27T11:04:28.815Z,40.13
2018-03-27T11:05:35.887Z,41.28
2018-03-27T11:06:24.527Z,38.79
2018-03-27T11:07:29.654Z,38.79
2018-03-27T11:08:40.414Z,38.87
2018-03-27T11:09:38.271Z,39.64
2018-03-27T11:11:08.996Z,39.64
2018-03-27T11:11:53.567Z,38.68
2018-03-27T11:13:08.910Z,38.20
2018-03-27T11:14:12.814Z,38.96
2018-03-27T11:15:15.686Z,39.64
2018-03-27T11:17:34.764Z,39.54
2018-03-27T11:18:21.131Z,39.35
2018-03-27T11:20:26.372Z,40.59
2018-03-27T11:21:34.673Z,38.87
2018-03-27T11:23:11.640Z,39.42
2018-03-27T11:23:43.794Z,39.52
2018-03-27T11:24:47.795Z,40.09
2018-03-27T11:26:19.751Z,39.52
2018-03-27T11:27:39.422Z,40.09
2018-03-27T11:28:38.514Z,40.28
2018-03-27T11:29:28.380Z,41.05
2018-03-27T11:30:39.961Z,40.95
2018-03-27T11:32:49.490Z,39.32
2018-03-27T11:33:46.637Z,40.09
2018-03-27T11:35:14.901Z,40.37
2018-03-27T11:36:06.509Z,39.90
2018-03-27T11:37:11.740Z,39.52
2018-03-27T11:38:03.146Z,39.23
2018-03-27T11:39:17.899Z,39.61
2018-03-27T11:40:26.714Z,40.01
2018-03-27T11:41:34.709Z,41.26
2018-03-27T11:42:28.056Z,42.21
2018-03-27T11:43:30.423Z,42.50
2018-03-27T11:44:55.210Z,41.16
2018-03-27T11:46:00.437Z,41.26
2018-03-27T11:47:10.276Z,41.06
2018-03-27T11:48:24.671Z,40.20
2018-03-27T11:48:44.080Z,40.23
2018-03-27T11:50:25.146Z,39.84
2018-03-27T11:52:13.995Z,39.08
2018-03-27T11:54:51.694Z,39.47
2018-03-27T11:55:46.690Z,39.75
2018-03-27T11:57:06.351Z,39.47
2018-03-27T11:58:11.374Z,40.13
2018-03-27T12:00:08.214Z,39.86
2018-03-27T12:00:43.034Z,40.82
2018-03-27T12:02:00.248Z,40.53
2018-03-27T12:03:00.863Z,40.06
2018-03-27T12:05:07.635Z,39.77
2018-03-27T12:06:17.475Z,39.86
2018-03-27T12:07:21.475Z,40.44
2018-03-27T12:08:34.382Z,41.30
2018-03-27T12:09:37.665Z,41.20
2018-03-27T12:10:40.237Z,40.63
2018-03-27T12:11:41.572Z,41.11
2018-03-27T12:12:48.336Z,41.49
2018-03-27T12:13:51.212Z,41.11
2018-03-27T12:14:59.109Z,41.01
2018-03-27T12:15:59.626Z,39.86
2018-03-27T12:17:03.522Z,39.29
2018-03-27T12:18:11.410Z,38.98
2018-03-27T12:19:18.484Z,38.98
2018-03-27T12:20:33.338Z,39.65
2018-03-27T12:21:29.254Z,40.13
2018-03-27T12:22:39.092Z,40.23
2018-03-27T12:26:02.765Z,41.85
2018-03-27T12:26:57.547Z,41.28
2018-03-27T12:28:02.879Z,41.28
2018-03-27T12:29:10.774Z,41.66
2018-03-27T12:30:20.403Z,41.28
2018-03-27T12:32:20.010Z,40.99
2018-03-27T12:33:25.037Z,41.38
2018-03-27T12:34:44.803Z,41.66
2018-03-27T12:35:54.749Z,41.85
2018-03-27T12:36:55.585Z,41.95
2018-03-27T12:37:56.602Z,41.09
2018-03-27T12:40:14.432Z,41.18
2018-03-27T12:41:22.229Z,40.80
2018-03-27T12:42:20.089Z,41.35
2018-03-27T12:44:39.863Z,41.18
2018-03-27T12:45:45.701Z,41.56
2018-03-27T12:46:51.660Z,42.33
2018-03-27T12:47:49.204Z,41.95
2018-03-27T12:48:58.417Z,41.18
2018-03-27T12:50:17.575Z,41.85
2018-03-27T12:51:05.292Z,42.24
2018-03-27T12:52:21.071Z,41.35
2018-03-27T12:53:14.012Z,41.16
2018-03-27T12:55:40.751Z,42.11
2018-03-27T12:57:05.744Z,42.21
2018-03-27T12:59:15.384Z,42.60
2018-03-27T13:01:13.254Z,42.79
2018-03-27T13:02:17.148Z,42.79
2018-03-27T13:03:33.127Z,42.02
2018-03-27T13:04:20.851Z,42.90
2018-03-27T13:05:17.882Z,43.48
2018-03-27T13:06:41.750Z,42.69
2018-03-27T13:07:26.499Z,42.71
2018-03-27T13:08:32.663Z,42.52
2018-03-27T13:11:51.208Z,42.33
2018-03-27T13:12:51.008Z,42.43
2018-03-27T13:14:13.344Z,42.43
2018-03-27T13:16:10.793Z,43.66
2018-03-27T13:17:21.457Z,43.48
2018-03-27T13:19:25.559Z,41.85
2018-03-27T13:20:27.412Z,42.54
2018-03-27T13:21:42.263Z,42.83
2018-03-27T13:22:46.161Z,42.83
2018-03-27T13:23:42.076Z,43.12
2018-03-27T13:24:45.869Z,42.83
2018-03-27T13:27:03.803Z,42.54
2018-03-27T13:28:11.693Z,42.73
2018-03-27T13:29:16.729Z,42.44
2018-03-27T13:30:27.478Z,42.44
2018-03-27T13:32:31.281Z,42.44
2018-03-27T13:33:51.156Z,42.93
2018-03-27T13:35:58.848Z,42.83
2018-03-27T13:36:56.927Z,42.73
2018-03-27T13:37:55.792Z,42.35
2018-03-27T13:40:14.443Z,43.12
2018-03-27T13:42:20.087Z,43.59
2018-03-27T13:43:28.181Z,43.40
2018-03-27T13:44:26.247Z,43.98
2018-03-27T13:45:33.112Z,42.64
2018-03-27T13:46:39.980Z,42.83
2018-03-27T13:47:44.801Z,42.83
2018-03-27T13:48:45.934Z,43.50
2018-03-27T13:49:54.849Z,43.40
2018-03-27T13:52:03.978Z,42.83
2018-03-27T13:53:14.427Z,42.93
2018-03-27T13:54:22.012Z,42.25
2018-03-27T13:55:33.797Z,42.44
2018-03-27T13:56:34.826Z,43.50
2018-03-27T13:57:36.676Z,43.98
2018-03-27T13:58:42.213Z,43.50
2018-03-27T13:59:47.238Z,43.57
2018-03-27T14:01:11.823Z,43.12
2018-03-27T14:01:56.058Z,43.57
2018-03-27T14:03:09.277Z,43.48
2018-03-27T14:04:06.934Z,43.57
2018-03-27T14:05:33.048Z,44.34
2018-03-27T14:09:36.692Z,45.10
2018-03-27T14:10:54.287Z,44.91
2018-03-27T14:12:02.067Z,45.20
2018-03-27T14:13:07.612Z,45.29
2018-03-27T14:14:07.313Z,45.77
2018-03-27T14:15:08.334Z,45.29
2018-03-27T14:16:21.142Z,45.39
2018-03-27T14:17:25.963Z,45.39
2018-03-27T14:18:33.137Z,45.58
2018-03-27T14:19:23.211Z,46.15
2018-03-27T14:20:27.210Z,46.15
2018-03-27T14:21:36.127Z,45.77
2018-03-27T14:22:41.972Z,46.25
2018-03-27T14:23:47.814Z,46.34
2018-03-27T14:24:54.580Z,46.82
2018-03-27T14:25:59.506Z,47.11
2018-03-27T14:27:10.468Z,47.49
2018-03-27T14:28:09.558Z,47.68
2018-03-27T14:29:25.338Z,48.64
2018-03-27T14:30:22.264Z,49.69
2018-03-27T14:32:37.125Z,50.16
2018-03-27T14:33:36.008Z,50.45
2018-03-27T14:34:47.894Z,50.55
2018-03-27T14:35:59.675Z,50.16
2018-03-27T14:37:01.525Z,50.64
2018-03-27T14:38:06.761Z,50.74
2018-03-27T14:39:13.424Z,50.26
2018-03-27T14:40:20.286Z,50.16
2018-03-27T14:42:43.138Z,52.34
2018-03-27T14:43:51.131Z,53.00
2018-03-27T14:44:30.993Z,53.77
2018-03-27T14:45:54.730Z,54.72
2018-03-27T14:47:31.497Z,54.63
2018-03-27T14:48:29.458Z,54.63
2018-03-27T14:50:12.163Z,54.89
2018-03-27T14:51:50.980Z,55.18
2018-03-27T14:52:54.979Z,56.32
2018-03-27T14:53:30.718Z,55.94
2018-03-27T14:57:56.559Z,57.06
2018-03-27T14:59:05.980Z,58.58
2018-03-27T15:00:03.023Z,57.72
2018-03-27T15:02:16.036Z,58.39
2018-03-27T15:03:13.704Z,58.68
2018-03-27T15:04:32.540Z,58.48
2018-03-27T15:05:40.735Z,57.72
2018-03-27T15:06:35.212Z,57.72
2018-03-27T15:07:39.217Z,58.39
2018-03-27T15:10:09.066Z,58.68
2018-03-27T15:10:58.490Z,59.25
2018-03-27T15:11:56.136Z,58.58
2018-03-27T15:13:07.519Z,59.25
2018-03-27T15:14:16.532Z,59.34
2018-03-27T15:15:21.769Z,60.11
2018-03-27T15:16:23.302Z,60.78
2018-03-27T15:18:39.802Z,60.49
2018-03-27T15:20:53.845Z,61.04
2018-03-27T15:22:05.424Z,60.65
2018-03-27T15:23:03.587Z,60.55
2018-03-27T15:24:10.661Z,60.75
2018-03-27T15:26:16.305Z,61.04
2018-03-27T15:27:21.448Z,60.75
2018-03-27T15:29:30.152Z,61.70
2018-03-27T15:30:36.815Z,62.08
2018-03-27T15:31:53.511Z,62.18
2018-03-27T15:32:50.449Z,62.75
2018-03-27T15:33:50.147Z,62.27
2018-03-27T15:34:59.066Z,62.08
2018-03-27T15:35:55.485Z,62.27
2018-03-27T15:37:18.533Z,62.75
2018-03-27T15:38:30.828Z,62.56
2018-03-27T15:39:26.534Z,62.94
2018-03-27T15:40:24.805Z,62.75
2018-03-27T15:41:25.320Z,62.84
2018-03-27T15:42:35.773Z,63.04
2018-03-27T15:43:48.169Z,63.99
2018-03-27T15:44:46.229Z,62.75
2018-03-27T15:45:57.706Z,62.94
2018-03-27T15:46:56.999Z,63.51
2018-03-27T15:50:19.450Z,63.99
2018-03-27T15:51:22.317Z,64.18
2018-03-27T15:54:34.216Z,63.96
2018-03-27T15:55:41.209Z,64.94
2018-03-27T15:56:46.724Z,65.13
2018-03-27T15:57:56.764Z,65.52
2018-03-27T15:59:01.800Z,65.52
2018-03-27T16:00:13.373Z,66.05
2018-03-27T16:01:12.967Z,65.48
2018-03-27T16:02:25.057Z,65.96
2018-03-27T16:03:31.413Z,66.53
2018-03-27T16:04:36.343Z,66.72
2018-03-27T16:06:46.075Z,67.10
2018-03-27T16:07:38.299Z,67.77
2018-03-27T16:08:49.264Z,67.77
2018-03-27T16:09:53.471Z,68.34
2018-03-27T16:11:05.252Z,67.68
2018-03-27T16:12:03.116Z,67.77
2018-03-27T16:14:09.678Z,69.01
2018-03-27T16:15:19.719Z,68.82
2018-03-27T16:17:31.919Z,68.82
2018-03-27T16:18:41.144Z,69.01
2018-03-27T16:19:53.949Z,68.72
2018-03-27T16:20:53.041Z,69.48
2018-03-27T16:21:58.074Z,69.48
2018-03-27T16:23:00.572Z,69.96
2018-03-27T16:24:21.237Z,70.44
2018-03-27T16:25:13.952Z,69.96
2018-03-27T16:26:51.340Z,70.34
2018-03-27T16:27:42.544Z,69.68
2018-03-27T16:30:50.958Z,69.77
2018-03-27T16:31:57.538Z,70.44
2018-03-27T16:34:01.734Z,70.82
2018-03-27T16:34:58.148Z,71.58
2018-03-27T16:35:59.282Z,72.25
2018-03-27T16:37:20.080Z,72.25
2018-03-27T16:38:19.061Z,72.16
2018-03-27T16:39:30.434Z,72.92
2018-03-27T16:40:30.458Z,72.72
2018-03-27T16:43:50.941Z,72.53
2018-03-27T16:44:55.252Z,72.34
2018-03-27T16:47:06.221Z,73.74
2018-03-27T16:48:14.524Z,73.45